sensor_id;sensor_type;location;lat;lon;timestamp;temperature;humidity
46400;DHT22;32104;50.838;4.388;2023-04-03T00:48:12;5.30;99.90
46400;DHT22;32104;50.838;4.388;2023-04-03T00:50:41;5.40;99.90
46400;DHT22;32104;50.838;4.388;2023-04-03T00:53:12;5.30;99.90
46400;DHT22;32104;50.838;4.388;2023-04-03T00:55:39;5.40;99.90
46400;DHT22;32104;50.838;4.388;2023-04-03T00:58:06;5.40;99.90
46400;DHT22;32104;50.838;4.388;2023-04-03T01:00:32;5.30;99.90
46400;DHT22;32104;50.838;4.388;2023-04-03T06:02:39;3.90;99.90
46400;DHT22;32104;50.838;4.388;2023-04-03T06:05:05;4.10;99.90
46400;DHT22;32104;50.838;4.388;2023-04-03T06:07:32;4.10;99.90
46400;DHT22;32104;50.838;4.388;2023-04-03T06:09:58;4.20;99.90
46400;DHT22;32104;50.838;4.388;2023-04-03T06:12:24;4.10;99.90
46400;DHT22;32104;50.838;4.388;2023-04-03T06:14:50;4.10;99.90
46400;DHT22;32104;50.838;4.388;2023-04-03T06:17:18;4.10;99.90
46400;DHT22;32104;50.838;4.388;2023-04-03T06:19:44;4.00;99.90
46400;DHT22;32104;50.838;4.388;2023-04-03T06:22:11;4.00;99.90
46400;DHT22;32104;50.838;4.388;2023-04-03T06:28:05;4.10;99.90
46400;DHT22;32104;50.838;4.388;2023-04-03T06:34:11;4.30;99.90
46400;DHT22;32104;50.838;4.388;2023-04-03T06:40:00;4.30;99.90
46400;DHT22;32104;50.838;4.388;2023-04-03T19:02:15;8.40;97.50
46400;DHT22;32104;50.838;4.388;2023-04-03T21:26:33;6.60;99.90
46400;DHT22;32104;50.838;4.388;2023-04-03T21:29:03;6.50;99.90
46400;DHT22;32104;50.838;4.388;2023-04-03T21:31:53;6.40;99.90
46400;DHT22;32104;50.838;4.388;2023-04-03T21:34:32;6.50;99.90
46400;DHT22;32104;50.838;4.388;2023-04-03T21:37:08;6.40;99.90
46400;DHT22;32104;50.838;4.388;2023-04-03T21:39:36;6.40;99.90
46400;DHT22;32104;50.838;4.388;2023-04-03T21:42:02;6.30;99.90
46400;DHT22;32104;50.838;4.388;2023-04-03T21:44:31;6.40;99.90
46400;DHT22;32104;50.838;4.388;2023-04-03T21:46:57;6.40;99.90
46400;DHT22;32104;50.838;4.388;2023-04-03T21:49:27;6.30;99.90
46400;DHT22;32104;50.838;4.388;2023-04-03T21:52:00;6.20;99.90
46400;DHT22;32104;50.838;4.388;2023-04-03T21:54:26;6.10;99.90
46400;DHT22;32104;50.838;4.388;2023-04-03T21:56:52;6.20;99.90
46400;DHT22;32104;50.838;4.388;2023-04-03T21:59:18;6.20;99.90
46400;DHT22;32104;50.838;4.388;2023-04-03T22:01:44;6.20;99.90
46400;DHT22;32104;50.838;4.388;2023-04-03T22:04:15;6.00;99.90
46400;DHT22;32104;50.838;4.388;2023-04-03T22:06:41;6.00;99.90
46400;DHT22;32104;50.838;4.388;2023-04-03T22:09:09;6.00;99.90
46400;DHT22;32104;50.838;4.388;2023-04-03T22:11:35;6.00;99.90
46400;DHT22;32104;50.838;4.388;2023-04-03T22:14:02;5.90;99.90
46400;DHT22;32104;50.838;4.388;2023-04-03T22:16:28;5.80;99.90
46400;DHT22;32104;50.838;4.388;2023-04-03T22:18:54;5.80;99.90
46400;DHT22;32104;50.838;4.388;2023-04-03T22:21:23;5.80;99.90
46400;DHT22;32104;50.838;4.388;2023-04-03T22:23:50;5.80;99.90
46400;DHT22;32104;50.838;4.388;2023-04-03T22:26:17;6.00;99.90
46400;DHT22;32104;50.838;4.388;2023-04-03T22:28:44;5.90;99.90
46400;DHT22;32104;50.838;4.388;2023-04-03T22:31:13;5.90;99.90
46400;DHT22;32104;50.838;4.388;2023-04-03T22:33:39;5.90;99.90
46400;DHT22;32104;50.838;4.388;2023-04-03T22:36:07;5.90;99.90
46400;DHT22;32104;50.838;4.388;2023-04-03T22:38:33;5.80;99.90
46400;DHT22;32104;50.838;4.388;2023-04-03T22:41:04;5.80;99.90
46400;DHT22;32104;50.838;4.388;2023-04-03T22:43:31;5.70;99.90
46400;DHT22;32104;50.838;4.388;2023-04-03T22:46:02;5.80;99.90
46400;DHT22;32104;50.838;4.388;2023-04-03T22:48:29;5.70;99.90
46400;DHT22;32104;50.838;4.388;2023-04-03T22:50:58;5.80;99.90
46400;DHT22;32104;50.838;4.388;2023-04-03T22:53:27;5.70;99.90
46400;DHT22;32104;50.838;4.388;2023-04-03T22:56:00;5.60;99.90
46400;DHT22;32104;50.838;4.388;2023-04-03T22:58:26;5.70;99.90
46400;DHT22;32104;50.838;4.388;2023-04-03T23:01:03;5.70;99.90
46400;DHT22;32104;50.838;4.388;2023-04-03T23:03:31;5.70;99.90
46400;DHT22;32104;50.838;4.388;2023-04-03T23:05:57;5.60;99.90
46400;DHT22;32104;50.838;4.388;2023-04-03T23:08:23;5.60;99.90
46400;DHT22;32104;50.838;4.388;2023-04-03T23:10:52;5.60;99.90
46400;DHT22;32104;50.838;4.388;2023-04-03T23:13:18;5.50;99.90
46400;DHT22;32104;50.838;4.388;2023-04-03T23:15:43;5.50;99.90
46400;DHT22;32104;50.838;4.388;2023-04-03T23:18:09;5.60;99.90
46400;DHT22;32104;50.838;4.388;2023-04-03T23:20:35;5.50;99.90
46400;DHT22;32104;50.838;4.388;2023-04-03T23:23:01;5.50;99.90
46400;DHT22;32104;50.838;4.388;2023-04-03T23:25:28;5.50;99.90
46400;DHT22;32104;50.838;4.388;2023-04-03T23:27:54;5.50;99.90
46400;DHT22;32104;50.838;4.388;2023-04-03T23:30:20;5.50;99.90
46400;DHT22;32104;50.838;4.388;2023-04-03T23:32:46;5.50;99.90
46400;DHT22;32104;50.838;4.388;2023-04-03T23:35:12;5.40;99.90
46400;DHT22;32104;50.838;4.388;2023-04-03T23:37:38;5.40;99.90
46400;DHT22;32104;50.838;4.388;2023-04-03T23:40:04;5.40;99.90
46400;DHT22;32104;50.838;4.388;2023-04-03T23:42:30;5.40;99.90
46400;DHT22;32104;50.838;4.388;2023-04-03T23:44:56;5.50;99.90
46400;DHT22;32104;50.838;4.388;2023-04-03T23:47:23;5.50;99.90
46400;DHT22;32104;50.838;4.388;2023-04-03T23:49:49;5.50;99.90
